Time;durP1;ratioP1;P1;durP2;ratioP2;P2;SDS_P1;SDS_P2;PMS_P1;PMS_P2;Temp;Humidity;BMP_temperature;BMP_pressure;BME280_temperature;BME280_humidity;BME280_pressure;Samples;Min_cycle;Max_cycle;Signal;HPM_P1;HPM_P2
2021/07/04 00:02:07;;;;;;;14.25;10.02;;;;;;;20.93;71.95;96992.19;5036422;28;20033;-64
2021/07/04 00:04:33;;;;;;;12.65;9.63;;;;;;;21.04;71.28;96991.66;5037106;28;20458;-65
2021/07/04 00:06:58;;;;;;;14.00;9.90;;;;;;;20.90;71.94;96996.16;5036637;28;20028;-64
2021/07/04 00:09:24;;;;;;;14.20;10.43;;;;;;;20.76;72.34;96988.91;5036817;28;20492;-64
2021/07/04 00:11:50;;;;;;;15.13;9.73;;;;;;;20.74;72.52;96991.81;5051870;28;20465;-65
2021/07/04 00:14:15;;;;;;;14.80;10.00;;;;;;;20.61;73.28;96993.56;5046294;28;20025;-65
2021/07/04 00:16:42;;;;;;;13.57;9.57;;;;;;;20.62;73.25;96992.50;5036949;28;20037;-65
2021/07/04 00:19:08;;;;;;;14.48;10.20;;;;;;;20.58;73.14;97000.28;5036544;28;20489;-64
2021/07/04 00:21:33;;;;;;;15.10;11.27;;;;;;;20.39;74.00;96991.69;5036498;28;20060;-64
2021/07/04 00:23:59;;;;;;;16.30;11.10;;;;;;;20.28;74.58;96992.19;5036011;28;20033;-64
2021/07/04 00:26:24;;;;;;;14.45;11.60;;;;;;;20.27;74.73;96986.91;5036226;28;20033;-64
2021/07/04 00:28:49;;;;;;;16.10;11.23;;;;;;;20.15;75.15;96987.44;5036396;28;20034;-62
2021/07/04 00:31:15;;;;;;;15.10;11.20;;;;;;;20.24;74.63;96986.28;5045193;28;20093;-64
2021/07/04 00:33:40;;;;;;;14.02;11.15;;;;;;;20.20;74.97;96979.53;5056027;28;20055;-64
2021/07/04 00:36:06;;;;;;;14.13;11.45;;;;;;;20.25;74.78;96981.66;5055876;28;20263;-64
2021/07/04 00:38:31;;;;;;;16.15;11.55;;;;;;;20.02;75.70;96976.38;5056053;28;20457;-64
2021/07/04 00:40:57;;;;;;;14.20;11.43;;;;;;;20.07;75.46;96982.94;5055758;28;20036;-64
2021/07/04 00:43:23;;;;;;;13.80;10.80;;;;;;;20.17;74.82;96979.88;5055614;28;20037;-64
2021/07/04 00:45:49;;;;;;;13.55;11.23;;;;;;;20.07;75.12;96971.19;5043827;28;20484;-65
2021/07/04 00:48:15;;;;;;;17.58;11.02;;;;;;;19.99;75.53;96976.72;5053693;28;20032;-64
2021/07/04 00:50:40;;;;;;;15.05;11.45;;;;;;;20.05;75.27;96978.69;5040345;28;20492;-64
2021/07/04 00:53:06;;;;;;;15.32;11.63;;;;;;;19.88;76.13;96984.41;5052884;28;20029;-65
2021/07/04 00:55:31;;;;;;;15.98;12.10;;;;;;;19.89;76.04;96982.50;5055584;28;20139;-63
2021/07/04 00:57:57;;;;;;;13.98;11.90;;;;;;;19.82;76.43;96973.41;5055523;28;20067;-66
2021/07/04 01:00:25;;;;;;;14.90;11.70;;;;;;;19.77;76.37;96981.28;5054191;28;20067;-61
2021/07/04 01:02:51;;;;;;;15.75;11.48;;;;;;;19.87;75.92;96968.22;5038575;28;20022;-61
2021/07/04 01:05:24;;;;;;;14.55;11.48;;;;;;;19.79;76.38;96966.41;5035188;28;20405;-64
2021/07/04 01:07:50;;;;;;;15.93;11.93;;;;;;;19.65;77.01;96959.09;5035610;28;20030;-64
2021/07/04 01:10:19;;;;;;;15.32;12.25;;;;;;;19.63;76.88;96952.97;5035229;28;20053;-64
2021/07/04 01:12:45;;;;;;;14.23;11.73;;;;;;;19.62;76.82;96954.84;5034096;28;20401;-64
2021/07/04 01:15:12;;;;;;;14.68;11.80;;;;;;;19.76;76.21;96953.13;5050951;28;20116;-64
2021/07/04 01:17:37;;;;;;;14.90;11.43;;;;;;;19.65;76.59;96950.91;5047659;28;20033;-64
2021/07/04 01:20:08;;;;;;;16.48;11.60;;;;;;;19.57;76.78;96946.41;5040886;28;20036;-64
2021/07/04 01:22:36;;;;;;;14.38;11.02;;;;;;;19.74;76.11;96939.69;5052880;28;20025;-66
2021/07/04 01:25:01;;;;;;;19.05;12.85;;;;;;;19.67;76.13;96927.00;5036214;28;20025;-66
2021/07/04 01:27:27;;;;;;;16.83;12.77;;;;;;;19.65;76.30;96927.19;5037558;28;20393;-65
2021/07/04 01:29:53;;;;;;;15.45;12.05;;;;;;;19.49;76.88;96932.88;5048218;28;20025;-66
2021/07/04 01:32:18;;;;;;;16.00;12.18;;;;;;;19.51;76.27;96923.47;5043972;28;20033;-67
2021/07/04 01:34:44;;;;;;;16.42;13.27;;;;;;;19.56;76.11;96928.31;5035217;28;20022;-64
2021/07/04 01:37:09;;;;;;;17.13;12.75;;;;;;;19.53;76.19;96926.00;5035163;28;20030;-63
2021/07/04 01:39:34;;;;;;;17.15;12.77;;;;;;;19.51;76.15;96923.47;5034673;28;20022;-64
2021/07/04 01:42:00;;;;;;;17.63;12.48;;;;;;;19.51;75.96;96925.34;5034681;28;20033;-63
2021/07/04 01:44:25;;;;;;;15.43;11.82;;;;;;;19.56;75.30;96931.94;5031257;28;20041;-63
2021/07/04 01:46:51;;;;;;;16.85;11.88;;;;;;;19.55;75.36;96927.50;5053696;28;20036;-62
2021/07/04 01:49:16;;;;;;;16.70;11.52;;;;;;;19.55;75.44;96919.31;5053266;28;20366;-63
2021/07/04 01:51:41;;;;;;;15.23;11.55;;;;;;;19.59;75.16;96914.34;5050674;28;20040;-64
2021/07/04 01:54:07;;;;;;;14.77;11.18;;;;;;;19.50;75.31;96924.50;5053688;28;20035;-63
2021/07/04 01:56:32;;;;;;;17.02;11.48;;;;;;;19.48;75.55;96934.75;5038767;28;20382;-63
2021/07/04 01:58:58;;;;;;;16.33;11.13;;;;;;;19.32;76.37;96927.63;5038796;28;20053;-63
2021/07/04 02:01:23;;;;;;;17.77;10.88;;;;;;;19.44;75.49;96941.63;5053075;28;20068;-63
2021/07/04 02:03:49;;;;;;;17.67;11.38;;;;;;;19.56;75.10;96947.44;5053551;28;20370;-63
2021/07/04 02:06:14;;;;;;;15.82;10.80;;;;;;;19.47;75.43;96940.38;5054058;28;20090;-63
2021/07/04 02:08:40;;;;;;;15.95;10.65;;;;;;;19.59;74.71;96955.25;5043284;28;20393;-63
2021/07/04 02:11:06;;;;;;;15.02;10.40;;;;;;;19.66;74.54;96960.78;5054399;28;20027;-63
2021/07/04 02:13:31;;;;;;;14.02;10.95;;;;;;;19.55;74.76;96956.66;5054233;28;20021;-63
2021/07/04 02:15:57;;;;;;;14.43;10.25;;;;;;;19.50;75.16;96954.50;5053044;28;20063;-63
2021/07/04 02:18:22;;;;;;;15.05;10.35;;;;;;;19.51;74.92;96969.81;5052715;28;20104;-63
2021/07/04 02:20:52;;;;;;;16.27;11.02;;;;;;;19.60;74.45;96967.00;5053921;28;20025;-62
2021/07/04 02:23:29;;;;;;;16.67;11.05;;;;;;;19.56;74.63;96961.94;5038897;28;20024;-63
2021/07/04 02:25:56;;;;;;;14.40;10.15;;;;;;;19.51;74.95;96972.56;5033824;28;20500;-62
2021/07/04 02:28:23;;;;;;;13.77;10.50;;;;;;;19.34;75.72;96971.06;5033943;28;20032;-63
2021/07/04 02:30:49;;;;;;;12.65;9.85;;;;;;;19.40;75.19;96968.44;5043384;28;20025;-63
2021/07/04 02:33:16;;;;;;;13.18;9.82;;;;;;;19.40;75.28;96973.00;5034180;28;20025;-63
2021/07/04 02:35:45;;;;;;;12.52;9.23;;;;;;;19.40;75.37;96971.16;5034091;28;20109;-63
2021/07/04 02:38:11;;;;;;;14.45;10.02;;;;;;;19.31;76.05;96976.88;5034005;28;20488;-63
2021/07/04 02:40:37;;;;;;;13.40;9.85;;;;;;;19.27;76.05;96991.91;5033734;28;20021;-64
2021/07/04 02:43:04;;;;;;;11.98;9.48;;;;;;;19.36;75.67;96982.59;5033474;28;20413;-63
2021/07/04 02:45:29;;;;;;;13.02;9.65;;;;;;;19.35;75.49;96975.50;5033678;28;20034;-63
2021/07/04 02:47:55;;;;;;;14.93;9.88;;;;;;;19.42;75.32;96970.97;5032445;28;20041;-63
2021/07/04 02:50:21;;;;;;;14.65;9.82;;;;;;;19.45;75.18;96972.47;5034454;28;20022;-63
2021/07/04 02:52:51;;;;;;;13.63;9.32;;;;;;;19.40;75.46;96975.75;5037718;28;20293;-64
2021/07/04 02:55:18;;;;;;;12.25;9.32;;;;;;;19.33;75.41;96980.25;5033435;28;20436;-63
2021/07/04 02:57:43;;;;;;;13.52;9.55;;;;;;;19.32;75.11;96986.75;5042142;28;20017;-63
2021/07/04 03:00:11;;;;;;;13.82;9.23;;;;;;;19.33;75.22;96986.56;5053323;28;20027;-63
2021/07/04 03:02:37;;;;;;;14.32;9.35;;;;;;;19.39;74.83;96982.25;5044646;28;20030;-63
2021/07/04 03:05:04;;;;;;;14.82;9.90;;;;;;;19.52;74.09;96967.94;5031864;28;20394;-63
2021/07/04 03:07:30;;;;;;;14.48;9.05;;;;;;;19.61;73.49;96964.06;5033597;28;20021;-63
2021/07/04 03:09:55;;;;;;;17.17;9.90;;;;;;;19.65;73.27;96956.38;5037755;28;20047;-63
2021/07/04 03:12:20;;;;;;;16.10;10.57;;;;;;;19.71;73.10;96963.78;5033119;28;20029;-63
2021/07/04 03:14:46;;;;;;;15.95;9.80;;;;;;;19.62;73.88;96957.59;5032134;28;20052;-63
2021/07/04 03:17:11;;;;;;;14.00;9.48;;;;;;;19.53;74.34;96965.00;5033160;28;20432;-64
2021/07/04 03:19:37;;;;;;;15.48;10.05;;;;;;;19.61;74.86;96955.88;5033279;28;20033;-63
2021/07/04 03:22:02;;;;;;;14.15;10.75;;;;;;;19.56;75.52;96955.59;5040723;28;20089;-63
2021/07/04 03:24:28;;;;;;;14.38;11.48;;;;;;;19.45;76.33;96954.22;5049263;28;20537;-63
2021/07/04 03:26:54;;;;;;;16.75;11.95;;;;;;;19.43;76.73;96950.84;5037282;28;20029;-63
2021/07/04 03:29:19;;;;;;;16.17;11.38;;;;;;;19.42;76.53;96943.69;5048263;28;20017;-63
2021/07/04 03:31:45;;;;;;;18.58;11.60;;;;;;;19.44;76.48;96943.50;5057430;28;20203;-63
2021/07/04 03:34:10;;;;;;;15.27;10.98;;;;;;;19.45;76.24;96940.56;5055764;28;20025;-63
2021/07/04 03:36:35;;;;;;;17.33;11.10;;;;;;;19.46;76.22;96927.81;5057365;28;20025;-63
2021/07/04 03:39:01;;;;;;;15.25;10.32;;;;;;;19.46;76.26;96920.47;5052557;28;20026;-64
2021/07/04 03:41:26;;;;;;;13.75;11.23;;;;;;;19.38;76.54;96915.94;5047732;28;20059;-64
2021/07/04 03:43:52;;;;;;;18.40;11.15;;;;;;;19.26;77.60;96911.19;5051596;28;20049;-64
2021/07/04 03:46:19;;;;;;;15.90;11.10;;;;;;;19.26;77.14;96905.72;5035547;28;20124;-63
2021/07/04 03:48:44;;;;;;;14.13;11.23;;;;;;;19.39;76.73;96903.19;5057021;28;20078;-63
2021/07/04 03:51:10;;;;;;;16.35;11.35;;;;;;;19.40;76.42;96908.44;5057010;28;20021;-64
2021/07/04 03:53:35;;;;;;;15.20;11.43;;;;;;;19.44;76.06;96922.53;5055851;28;20445;-63
2021/07/04 03:56:00;;;;;;;14.05;10.48;;;;;;;19.44;75.86;96913.50;5055205;28;20060;-63
2021/07/04 03:58:26;;;;;;;15.57;11.20;;;;;;;19.39;75.88;96914.91;5039993;28;20172;-63
2021/07/04 04:00:51;;;;;;;16.38;11.25;;;;;;;19.36;76.23;96911.72;5047217;28;20116;-63
2021/07/04 04:03:17;;;;;;;15.45;10.90;;;;;;;19.18;77.08;96918.41;5056697;28;20032;-62
2021/07/04 04:05:42;;;;;;;15.73;10.52;;;;;;;19.08;77.57;96926.03;5056629;28;20495;-63
2021/07/04 04:08:07;;;;;;;13.35;10.32;;;;;;;18.95;78.35;96920.38;5050879;28;20104;-64
2021/07/04 04:10:34;;;;;;;13.75;10.10;;;;;;;18.85;78.60;96924.19;5036773;28;20025;-63
2021/07/04 04:13:01;;;;;;;12.80;10.38;;;;;;;18.96;78.21;96905.72;5035319;28;20101;-63
2021/07/04 04:15:26;;;;;;;17.85;11.50;;;;;;;18.94;78.08;96892.28;5035210;28;20017;-63
2021/07/04 04:17:53;;;;;;;13.32;10.23;;;;;;;18.93;78.27;96889.75;5035095;28;20112;-64
2021/07/04 04:20:19;;;;;;;16.38;10.60;;;;;;;18.87;78.77;96896.75;5036506;28;20032;-63
2021/07/04 04:22:44;;;;;;;13.10;10.35;;;;;;;18.97;78.26;96897.34;5036352;28;20017;-62
2021/07/04 04:25:10;;;;;;;12.93;10.50;;;;;;;19.02;77.86;96910.44;5035979;28;20362;-62
2021/07/04 04:27:35;;;;;;;15.65;10.80;;;;;;;19.09;77.67;96915.97;5054755;28;20069;-62
2021/07/04 04:30:02;;;;;;;15.13;10.77;;;;;;;19.13;77.87;96922.72;5056241;28;20025;-62
2021/07/04 04:32:28;;;;;;;14.07;10.13;;;;;;;19.13;77.39;96928.19;5054830;28;20425;-63
2021/07/04 04:34:53;;;;;;;11.55;10.07;;;;;;;19.05;78.34;96931.84;5050849;28;20029;-63
2021/07/04 04:37:18;;;;;;;14.43;10.18;;;;;;;19.14;77.69;96932.63;5035972;28;20029;-64
2021/07/04 04:39:44;;;;;;;14.10;10.23;;;;;;;18.99;78.04;96946.22;5036623;28;20033;-64
2021/07/04 04:42:10;;;;;;;14.45;9.55;;;;;;;19.14;77.63;96940.78;5037158;28;20404;-64
2021/07/04 04:44:36;;;;;;;13.63;10.23;;;;;;;19.15;77.50;96942.50;5054311;28;20397;-63
2021/07/04 04:47:01;;;;;;;14.05;9.48;;;;;;;19.24;77.00;96938.59;5055134;28;20086;-64
2021/07/04 04:49:27;;;;;;;13.50;10.07;;;;;;;19.20;77.23;96935.44;5049944;28;20087;-64
2021/07/04 04:51:52;;;;;;;15.40;10.00;;;;;;;19.15;77.28;96916.06;5052869;28;20029;-63
2021/07/04 04:54:18;;;;;;;15.57;10.18;;;;;;;19.27;76.77;96910.13;5054304;28;20033;-63
2021/07/04 04:56:43;;;;;;;13.57;9.73;;;;;;;19.33;76.95;96920.28;5052246;28;20469;-64
2021/07/04 04:59:08;;;;;;;14.52;10.88;;;;;;;19.27;77.01;96926.47;5055005;28;20052;-64
2021/07/04 05:01:34;;;;;;;13.68;10.35;;;;;;;19.25;77.56;96921.22;5054502;28;20032;-63
2021/07/04 05:03:59;;;;;;;15.32;9.98;;;;;;;19.26;77.55;96911.19;5054810;28;20025;-63
2021/07/04 05:06:24;;;;;;;14.20;10.40;;;;;;;19.31;77.19;96915.03;5054636;28;20033;-64
2021/07/04 05:08:50;;;;;;;13.80;9.70;;;;;;;19.22;77.81;96911.53;5054827;28;20100;-63
2021/07/04 05:11:16;;;;;;;15.45;10.20;;;;;;;19.27;77.68;96910.13;5053970;28;20025;-63
2021/07/04 05:13:41;;;;;;;17.05;9.98;;;;;;;19.33;77.31;96907.47;5036432;28;20036;-63
2021/07/04 05:16:07;;;;;;;15.82;11.45;;;;;;;19.28;76.97;96915.41;5035017;28;20384;-64
2021/07/04 05:18:34;;;;;;;14.20;10.63;;;;;;;19.45;76.58;96910.56;5034293;28;20112;-64
2021/07/04 05:20:59;;;;;;;16.48;10.95;;;;;;;19.41;76.56;96920.19;5039249;28;20124;-64
2021/07/04 05:23:25;;;;;;;15.68;11.18;;;;;;;19.43;76.77;96926.31;5051922;28;20109;-62
2021/07/04 05:25:53;;;;;;;14.88;10.60;;;;;;;19.46;76.57;96934.09;5052840;28;20063;-62
2021/07/04 05:28:19;;;;;;;15.13;9.95;;;;;;;19.60;76.18;96937.00;5050865;28;20099;-63
2021/07/04 05:30:44;;;;;;;13.55;10.00;;;;;;;19.62;76.48;96937.66;5053120;28;20104;-62
2021/07/04 05:33:09;;;;;;;14.98;10.13;;;;;;;19.58;76.69;96948.09;5050370;28;20393;-61
2021/07/04 05:35:35;;;;;;;14.63;10.13;;;;;;;19.72;76.05;96947.22;5052837;28;20029;-63
2021/07/04 05:38:00;;;;;;;15.35;10.27;;;;;;;19.79;76.52;96947.31;5054204;28;20025;-64
2021/07/04 05:40:26;;;;;;;14.55;9.90;;;;;;;19.78;76.33;96937.44;5052719;28;20032;-62
2021/07/04 05:42:52;;;;;;;16.25;11.25;;;;;;;19.88;76.10;96948.91;5053908;28;20048;-64
2021/07/04 05:45:23;;;;;;;12.85;10.10;;;;;;;19.95;75.70;96956.31;5054111;28;20025;-64
2021/07/04 05:47:48;;;;;;;15.45;10.88;;;;;;;19.88;76.13;96965.28;5053436;28;20024;-64
2021/07/04 05:50:14;;;;;;;17.05;11.18;;;;;;;19.83;76.56;96965.03;5053984;28;20017;-64
2021/07/04 05:52:39;;;;;;;14.77;10.55;;;;;;;19.98;76.07;96961.41;5050151;28;20052;-64
2021/07/04 05:55:05;;;;;;;15.25;10.68;;;;;;;20.16;75.14;96977.34;5052749;28;20098;-63
2021/07/04 05:57:30;;;;;;;17.02;12.13;;;;;;;20.17;75.00;96970.84;5053851;28;20039;-63
2021/07/04 05:59:56;;;;;;;14.50;11.40;;;;;;;20.24;74.88;96978.09;5053563;28;20025;-61
2021/07/04 06:02:21;;;;;;;16.70;12.02;;;;;;;20.23;75.16;96989.22;5053597;28;20442;-62
2021/07/04 06:04:47;;;;;;;18.83;12.13;;;;;;;20.18;74.87;96978.84;5053983;28;20025;-62
2021/07/04 06:07:12;;;;;;;14.77;11.15;;;;;;;20.33;74.84;96972.50;5054098;28;20082;-63
2021/07/04 06:09:37;;;;;;;15.55;11.55;;;;;;;20.44;74.07;96977.44;5053709;28;20418;-62
2021/07/04 06:12:03;;;;;;;15.15;10.75;;;;;;;20.58;73.20;96970.22;5054179;28;20029;-62
2021/07/04 06:14:28;;;;;;;14.85;10.57;;;;;;;20.70;72.63;96968.69;5053955;28;20389;-64
2021/07/04 06:16:54;;;;;;;14.10;10.68;;;;;;;20.77;72.05;96966.00;5040315;28;20037;-65
2021/07/04 06:19:19;;;;;;;15.20;10.75;;;;;;;20.83;71.26;96961.63;5031833;28;20034;-64
2021/07/04 06:21:45;;;;;;;16.15;10.40;;;;;;;21.07;70.56;96958.47;5031829;28;20028;-64
2021/07/04 06:24:10;;;;;;;13.85;11.05;;;;;;;21.18;69.90;96957.06;5034247;28;20520;-64
2021/07/04 06:26:35;;;;;;;16.30;10.35;;;;;;;21.12;70.21;96955.09;5044117;28;20356;-65
2021/07/04 06:29:01;;;;;;;16.83;11.65;;;;;;;21.11;70.01;96955.31;5041898;28;20527;-64
2021/07/04 06:31:29;;;;;;;15.45;11.60;;;;;;;21.05;70.56;96946.03;5041510;28;20029;-64
2021/07/04 06:33:57;;;;;;;13.75;10.88;;;;;;;21.13;70.14;96953.25;5034005;28;20029;-64
2021/07/04 06:36:24;;;;;;;15.73;11.30;;;;;;;21.29;69.65;96957.56;5032777;28;20548;-64
2021/07/04 06:38:50;;;;;;;18.90;11.70;;;;;;;21.39;68.64;96949.81;5043809;28;20392;-63
2021/07/04 06:41:15;;;;;;;17.08;10.73;;;;;;;21.53;68.45;96946.13;5033566;28;20481;-63
2021/07/04 06:43:42;;;;;;;15.60;10.65;;;;;;;21.65;68.23;96961.97;5034072;28;20457;-64
2021/07/04 06:46:07;;;;;;;14.98;10.63;;;;;;;21.68;68.33;96962.41;5052375;28;20045;-65
2021/07/04 06:48:33;;;;;;;16.95;12.63;;;;;;;21.68;67.98;96972.50;5052896;28;20168;-64
2021/07/04 06:50:58;;;;;;;15.07;11.00;;;;;;;21.74;68.17;96969.81;5053017;28;20477;-64
2021/07/04 06:53:23;;;;;;;20.13;11.32;;;;;;;21.70;67.89;96978.63;5052523;28;20100;-64
2021/07/04 06:55:50;;;;;;;15.10;11.48;;;;;;;21.71;67.28;96983.03;5035659;28;20026;-62
2021/07/04 06:58:16;;;;;;;16.00;11.45;;;;;;;21.60;67.92;96984.47;5053329;28;20504;-63
2021/07/04 07:00:41;;;;;;;14.85;10.93;;;;;;;21.62;67.28;96973.31;5045744;28;20080;-64
2021/07/04 07:03:06;;;;;;;14.85;10.70;;;;;;;21.54;67.68;96950.56;5033223;28;20029;-63
2021/07/04 07:05:32;;;;;;;16.55;9.85;;;;;;;21.60;67.59;96946.16;5047096;28;20162;-63
2021/07/04 07:07:57;;;;;;;12.35;9.15;;;;;;;21.73;66.71;96950.88;5043974;28;20025;-63
2021/07/04 07:10:23;;;;;;;13.00;8.75;;;;;;;21.68;67.14;96964.31;5035874;28;20033;-63
2021/07/04 07:12:48;;;;;;;12.98;8.20;;;;;;;21.84;65.97;96974.91;5051276;28;20510;-64
2021/07/04 07:15:14;;;;;;;10.93;7.70;;;;;;;21.89;66.30;96972.41;5050742;28;20397;-64
2021/07/04 07:17:40;;;;;;;12.05;8.27;;;;;;;21.94;65.38;96979.16;5053185;28;20028;-64
2021/07/04 07:20:07;;;;;;;11.02;7.95;;;;;;;22.04;64.75;96983.19;5051750;28;20428;-64
2021/07/04 07:22:32;;;;;;;11.65;7.95;;;;;;;22.12;64.82;96982.16;5052723;28;20029;-63
2021/07/04 07:24:58;;;;;;;11.57;8.18;;;;;;;22.13;65.13;96988.47;5051859;28;20092;-63
2021/07/04 07:27:23;;;;;;;12.27;8.07;;;;;;;22.13;65.08;96985.75;5052937;28;20056;-63
2021/07/04 07:29:49;;;;;;;13.35;7.97;;;;;;;22.18;65.10;96983.22;5052710;28;20024;-62
2021/07/04 07:32:14;;;;;;;10.93;7.90;;;;;;;22.19;64.51;96983.03;5040655;28;20030;-64
2021/07/04 07:34:40;;;;;;;11.88;8.13;;;;;;;22.22;64.29;96993.59;5040063;28;20021;-64
2021/07/04 07:37:05;;;;;;;14.60;8.65;;;;;;;22.20;63.83;96990.19;5049220;28;20420;-64
2021/07/04 07:39:31;;;;;;;12.80;8.02;;;;;;;22.19;64.40;96985.78;5046182;28;20473;-63
2021/07/04 07:41:56;;;;;;;13.75;8.35;;;;;;;22.08;65.13;96992.69;5034657;28;20025;-63
2021/07/04 07:44:22;;;;;;;14.40;8.85;;;;;;;22.06;64.35;96991.19;5042610;28;20030;-65
2021/07/04 07:46:49;;;;;;;13.43;7.82;;;;;;;22.14;64.64;96985.56;5052535;28;20086;-65
2021/07/04 07:49:15;;;;;;;13.05;8.05;;;;;;;22.29;64.03;96981.78;5052442;28;20393;-65
2021/07/04 07:51:40;;;;;;;14.23;8.45;;;;;;;22.35;64.10;96976.34;5051060;28;20063;-65
2021/07/04 07:54:06;;;;;;;15.70;9.10;;;;;;;22.43;63.56;96980.78;5084392;28;20503;-64
2021/07/04 07:56:31;;;;;;;11.98;8.65;;;;;;;22.50;63.46;96978.94;5052298;28;20025;-64
2021/07/04 07:58:57;;;;;;;15.40;8.35;;;;;;;22.66;62.94;96976.81;5052237;28;20033;-65
2021/07/04 08:01:22;;;;;;;14.85;9.73;;;;;;;22.72;62.79;96971.34;5052206;28;20021;-65
2021/07/04 08:03:48;;;;;;;14.13;9.63;;;;;;;22.66;62.81;96972.22;5052069;28;20024;-63
2021/07/04 08:06:13;;;;;;;16.00;10.10;;;;;;;22.63;62.98;96974.50;5051149;28;20033;-65
2021/07/04 08:08:38;;;;;;;18.75;9.77;;;;;;;22.56;63.01;96978.06;5051380;28;20388;-65
2021/07/04 08:11:04;;;;;;;11.15;8.13;;;;;;;22.68;62.56;96970.09;5053793;28;20025;-65
2021/07/04 08:13:30;;;;;;;14.13;9.35;;;;;;;22.72;62.14;96976.00;5056393;28;20060;-65
2021/07/04 08:15:55;;;;;;;11.68;9.48;;;;;;;22.71;61.86;96972.41;5055187;28;20044;-64
2021/07/04 08:18:21;;;;;;;13.35;8.90;;;;;;;22.62;62.59;96973.69;5056126;28;20036;-65
2021/07/04 08:20:47;;;;;;;15.25;9.50;;;;;;;22.79;62.18;96967.78;5056239;28;20029;-64
2021/07/04 08:23:13;;;;;;;14.85;10.73;;;;;;;22.94;61.38;96968.38;5056032;28;20031;-64
2021/07/04 08:25:38;;;;;;;15.25;10.23;;;;;;;22.95;61.35;96958.28;5056210;28;20033;-65
2021/07/04 08:28:04;;;;;;;14.88;9.27;;;;;;;22.99;61.46;96957.63;5055974;28;20081;-65
2021/07/04 08:30:29;;;;;;;15.93;9.73;;;;;;;23.07;61.31;96960.16;5055687;28;20035;-65
2021/07/04 08:32:54;;;;;;;13.35;9.50;;;;;;;22.97;61.62;96957.03;5054220;28;20079;-64
2021/07/04 08:35:20;;;;;;;12.63;9.02;;;;;;;22.98;61.13;96969.69;5054859;28;20033;-64
2021/07/04 08:37:45;;;;;;;18.35;10.35;;;;;;;22.94;60.91;96971.13;5055468;28;20033;-65
2021/07/04 08:40:11;;;;;;;15.85;10.75;;;;;;;22.51;62.55;96968.81;5055603;28;20458;-64
2021/07/04 08:42:37;;;;;;;14.88;9.70;;;;;;;22.66;62.35;96969.47;5055731;28;20049;-65
2021/07/04 08:45:03;;;;;;;15.32;10.88;;;;;;;22.76;61.51;96960.00;5055486;28;20112;-61
2021/07/04 08:47:28;;;;;;;14.90;10.60;;;;;;;22.73;62.10;96961.25;5055887;28;20033;-65
2021/07/04 08:49:55;;;;;;;13.13;10.30;;;;;;;22.38;62.51;96962.25;5055605;28;20389;-65
2021/07/04 08:52:21;;;;;;;15.05;9.85;;;;;;;22.61;62.35;96973.88;5055619;28;20048;-65
2021/07/04 08:54:46;;;;;;;15.57;9.70;;;;;;;22.67;61.96;96962.91;5055338;28;20021;-65
2021/07/04 08:57:15;;;;;;;14.90;9.82;;;;;;;22.60;62.23;96963.97;5055198;28;20029;-64
2021/07/04 08:59:42;;;;;;;15.52;10.30;;;;;;;22.51;62.84;96961.41;5054399;28;20025;-64
2021/07/04 09:02:10;;;;;;;14.23;9.13;;;;;;;22.54;63.40;96965.63;5055284;28;20040;-65
2021/07/04 09:04:37;;;;;;;14.10;9.13;;;;;;;22.53;63.34;96974.94;5055502;28;20024;-65
2021/07/04 09:07:02;;;;;;;14.13;9.25;;;;;;;22.27;64.22;96968.28;5054943;28;20112;-63
2021/07/04 09:09:33;;;;;;;14.38;8.48;;;;;;;22.49;63.66;96959.94;5055533;28;20114;-64
2021/07/04 09:12:12;;;;;;;11.88;8.52;;;;;;;22.63;63.40;96956.16;5055366;28;20361;-65
2021/07/04 09:14:38;;;;;;;11.95;8.73;;;;;;;22.66;63.36;96965.88;5055117;28;20039;-66
2021/07/04 09:17:06;;;;;;;14.80;8.98;;;;;;;22.55;63.84;96962.72;5055107;28;20029;-63
2021/07/04 09:19:32;;;;;;;14.20;8.68;;;;;;;22.61;63.36;96963.75;5055201;28;20025;-65
2021/07/04 09:22:02;;;;;;;17.35;9.07;;;;;;;22.66;63.08;96961.25;5054129;28;20036;-65
2021/07/04 09:24:33;;;;;;;15.52;9.13;;;;;;;22.53;63.57;96953.84;5054838;28;20466;-64
2021/07/04 09:26:59;;;;;;;12.70;8.40;;;;;;;22.54;63.78;96957.41;5054833;28;20083;-63
2021/07/04 09:29:52;;;;;;;11.23;8.60;;;;;;;22.65;63.31;96966.91;5055090;28;20025;-64
2021/07/04 09:32:20;;;;;;;12.60;8.60;;;;;;;22.76;62.85;96976.44;5054585;28;20389;-63
2021/07/04 09:35:12;;;;;;;14.45;8.45;;;;;;;22.88;62.59;96967.34;5054782;28;20029;-64
2021/07/04 09:37:38;;;;;;;12.98;8.48;;;;;;;22.82;63.16;96965.47;5054551;28;20035;-63
2021/07/04 09:40:20;;;;;;;13.80;8.27;;;;;;;22.98;62.63;96972.44;5054973;28;20028;-62
2021/07/04 09:43:06;;;;;;;12.50;8.20;;;;;;;23.04;62.26;96965.25;5054250;28;20516;-63
2021/07/04 09:45:41;;;;;;;15.15;8.50;;;;;;;23.17;61.66;96973.50;5054134;28;20090;-63
2021/07/04 09:48:06;;;;;;;13.52;9.02;;;;;;;23.17;61.62;96975.38;5052252;28;20044;-63
2021/07/04 09:50:38;;;;;;;16.92;9.10;;;;;;;23.21;61.57;96977.50;5052404;28;20025;-63
2021/07/04 09:53:03;;;;;;;13.02;8.43;;;;;;;23.22;61.48;96984.69;5053706;28;20056;-62
2021/07/04 09:55:30;;;;;;;9.90;7.68;;;;;;;23.30;61.25;96977.25;5054201;28;20461;-63
2021/07/04 09:57:59;;;;;;;11.88;8.30;;;;;;;23.33;61.13;96974.94;5053839;28;20396;-63
2021/07/04 10:00:31;;;;;;;13.18;8.20;;;;;;;23.35;60.54;96969.25;5049626;28;20400;-63
2021/07/04 10:03:20;;;;;;;13.90;8.93;;;;;;;23.13;60.92;96965.84;5052978;28;20024;-63
2021/07/04 10:05:55;;;;;;;14.45;8.32;;;;;;;23.19;60.87;96959.56;5045646;28;20033;-63
2021/07/04 10:08:20;;;;;;;13.57;9.85;;;;;;;23.07;60.80;96957.41;5050483;28;20036;-63
2021/07/04 10:10:46;;;;;;;12.20;9.13;;;;;;;23.03;60.95;96958.06;5051827;28;20029;-63
2021/07/04 10:13:12;;;;;;;14.30;8.80;;;;;;;23.07;60.76;96956.59;5051886;28;20027;-62
2021/07/04 10:15:39;;;;;;;14.18;9.32;;;;;;;23.00;61.09;96956.59;5052265;28;20036;-63
2021/07/04 10:18:05;;;;;;;12.52;8.00;;;;;;;23.01;61.26;96949.19;5051709;28;20572;-63
2021/07/04 10:20:30;;;;;;;13.75;9.43;;;;;;;23.13;60.69;96938.44;5051720;28;20096;-63
2021/07/04 10:22:56;;;;;;;14.32;9.05;;;;;;;23.17;60.59;96942.47;5052444;28;20037;-64
2021/07/04 10:25:22;;;;;;;15.00;10.02;;;;;;;23.12;60.54;96948.56;5052872;28;20120;-63
2021/07/04 10:27:48;;;;;;;14.68;9.73;;;;;;;23.02;60.80;96945.41;5053407;28;20499;-63
2021/07/04 10:30:14;;;;;;;13.82;9.90;;;;;;;22.67;61.89;96946.47;5053398;28;20104;-63
2021/07/04 10:33:15;;;;;;;15.52;9.93;;;;;;;22.92;61.67;96942.28;5052541;28;20104;-63
2021/07/04 10:36:05;;;;;;;13.40;8.60;;;;;;;23.15;61.19;96942.69;5052369;28;20029;-63
2021/07/04 10:38:38;;;;;;;12.30;8.40;;;;;;;23.14;61.99;96946.47;5050533;28;20033;-63
2021/07/04 10:41:19;;;;;;;14.60;10.60;;;;;;;22.79;62.00;96949.41;5052471;28;20061;-62
2021/07/04 10:43:50;;;;;;;13.48;9.00;;;;;;;22.70;62.59;96956.16;5052114;28;20041;-63
2021/07/04 10:46:15;;;;;;;13.38;9.15;;;;;;;22.70;63.05;96948.81;5052845;28;20424;-63
2021/07/04 10:48:57;;;;;;;15.13;8.93;;;;;;;22.63;62.54;96938.88;5052830;28;20029;-63
2021/07/04 10:51:24;;;;;;;13.52;8.57;;;;;;;22.62;63.20;96945.41;5051042;28;20036;-65
2021/07/04 10:53:52;;;;;;;13.57;9.20;;;;;;;22.51;63.95;96936.75;5052502;28;20017;-65
2021/07/04 10:56:32;;;;;;;13.23;9.55;;;;;;;22.53;63.18;96931.09;5033975;28;20071;-64
2021/07/04 10:59:02;;;;;;;10.90;8.48;;;;;;;22.61;63.45;96935.50;5051311;28;20090;-65
2021/07/04 11:01:47;;;;;;;17.15;9.45;;;;;;;22.00;68.63;96937.28;5052043;28;20078;-65
2021/07/04 11:04:28;;;;;;;15.85;9.77;;;;;;;21.79;70.94;96935.50;5048438;28;20465;-65
2021/07/04 11:06:53;;;;;;;15.07;10.23;;;;;;;21.61;71.84;96947.03;5050180;28;20499;-66
2021/07/04 11:09:19;;;;;;;17.80;11.15;;;;;;;21.44;73.37;96941.00;5050305;28;20036;-66
2021/07/04 11:11:44;;;;;;;19.40;12.45;;;;;;;21.27;74.64;96932.28;5029481;28;20026;-65
2021/07/04 11:14:09;;;;;;;22.77;14.70;;;;;;;21.16;76.72;96928.22;5045096;28;20021;-65
2021/07/04 11:16:35;;;;;;;22.20;13.77;;;;;;;20.44;77.80;96928.25;5049056;28;20469;-65
2021/07/04 11:19:09;;;;;;;19.83;13.48;;;;;;;20.36;79.21;96952.97;5044770;28;20079;-65